createdAt,value
2022-08-16T00:00:53.731Z,22.20
2022-08-16T00:01:53.819Z,22.20
2022-08-16T00:02:53.794Z,22.18
2022-08-16T00:03:53.824Z,22.20
2022-08-16T00:04:53.852Z,22.06
2022-08-16T00:05:57.650Z,21.99
2022-08-16T00:06:53.911Z,22.05
2022-08-16T00:07:56.279Z,22.03
2022-08-16T00:08:53.973Z,21.99
2022-08-16T00:09:54.001Z,21.98
2022-08-16T00:10:54.036Z,21.98
2022-08-16T00:11:55.422Z,21.98
2022-08-16T00:12:54.641Z,21.90
2022-08-16T00:13:55.469Z,21.88
2022-08-16T00:14:56.458Z,21.80
2022-08-16T00:15:54.400Z,21.82
2022-08-16T00:17:01.221Z,21.77
2022-08-16T00:17:57.008Z,21.77
2022-08-16T00:18:54.265Z,21.65
2022-08-16T00:19:55.200Z,21.64
2022-08-16T00:20:54.329Z,21.56
2022-08-16T00:21:56.123Z,21.59
2022-08-16T00:22:54.384Z,21.47
2022-08-16T00:23:54.409Z,21.40
2022-08-16T00:24:54.713Z,21.34
2022-08-16T00:26:36.409Z,21.31
2022-08-16T00:26:54.498Z,21.16
2022-08-16T00:27:54.527Z,21.22
2022-08-16T00:28:55.086Z,21.21
2022-08-16T00:30:09.039Z,21.16
2022-08-16T00:30:54.614Z,21.13
2022-08-16T00:31:59.479Z,21.16
2022-08-16T00:32:57.079Z,21.03
2022-08-16T00:33:54.706Z,21.04
2022-08-16T00:34:54.730Z,21.04
2022-08-16T00:35:54.759Z,20.99
2022-08-16T00:36:55.750Z,21.01
2022-08-16T00:37:56.777Z,21.03
2022-08-16T00:38:54.846Z,21.03
2022-08-16T00:39:58.483Z,21.04
2022-08-16T00:40:54.945Z,21.06
2022-08-16T00:41:54.931Z,21.10
2022-08-16T00:42:55.164Z,21.09
2022-08-16T00:43:54.989Z,21.09
2022-08-16T00:44:55.016Z,21.13
2022-08-16T00:45:58.081Z,21.10
2022-08-16T00:47:02.483Z,21.10
2022-08-16T00:47:55.106Z,21.22
2022-08-16T00:48:55.135Z,21.22
2022-08-16T00:49:56.461Z,21.16
2022-08-16T00:50:55.530Z,21.19
2022-08-16T00:51:55.632Z,21.24
2022-08-16T00:52:55.679Z,21.22
2022-08-16T00:53:55.292Z,21.16
2022-08-16T00:54:55.326Z,21.27
2022-08-16T00:55:55.333Z,21.19
2022-08-16T00:56:58.342Z,21.14
2022-08-16T00:57:58.991Z,21.21
2022-08-16T00:58:55.425Z,21.19
2022-08-16T00:59:59.647Z,21.21
2022-08-16T01:00:55.502Z,21.14
2022-08-16T01:01:55.511Z,21.07
2022-08-16T01:02:55.541Z,21.07
2022-08-16T01:03:55.568Z,21.10
2022-08-16T01:05:10.578Z,21.10
2022-08-16T01:05:55.622Z,21.07
2022-08-16T01:07:01.454Z,21.09
2022-08-16T01:07:55.687Z,20.99
2022-08-16T01:08:55.712Z,21.12
2022-08-16T01:09:55.740Z,20.97
2022-08-16T01:10:55.774Z,21.03
2022-08-16T01:11:55.799Z,20.95
2022-08-16T01:12:55.825Z,21.01
2022-08-16T01:13:55.855Z,21.03
2022-08-16T01:14:55.884Z,21.03
2022-08-16T01:15:55.914Z,21.03
2022-08-16T01:16:55.946Z,21.04
2022-08-16T01:17:56.363Z,20.99
2022-08-16T01:18:55.999Z,20.95
2022-08-16T01:19:57.203Z,21.04
2022-08-16T01:20:56.062Z,20.95
2022-08-16T01:21:56.086Z,20.97
2022-08-16T01:22:56.116Z,20.95
2022-08-16T01:23:58.685Z,20.99
2022-08-16T01:24:56.177Z,20.99
2022-08-16T01:26:00.115Z,20.98
2022-08-16T01:26:56.234Z,20.98
2022-08-16T01:27:56.297Z,21.07
2022-08-16T01:28:56.292Z,21.10
2022-08-16T01:29:57.687Z,21.22
2022-08-16T01:30:56.346Z,21.19
2022-08-16T01:31:56.376Z,21.17
2022-08-16T01:33:14.157Z,21.13
2022-08-16T01:33:56.431Z,21.25
2022-08-16T01:34:56.980Z,21.22
2022-08-16T01:35:56.491Z,21.24
2022-08-16T01:36:58.433Z,21.29
2022-08-16T01:37:56.547Z,21.25
2022-08-16T01:38:57.416Z,21.34
2022-08-16T01:39:56.660Z,21.27
2022-08-16T01:40:56.632Z,21.28
2022-08-16T01:41:56.661Z,21.27
2022-08-16T01:42:56.692Z,21.35
2022-08-16T01:43:56.721Z,21.31
2022-08-16T01:44:56.755Z,21.37
2022-08-16T01:45:57.622Z,21.37
2022-08-16T01:46:56.804Z,21.32
2022-08-16T01:47:56.848Z,21.38
2022-08-16T01:48:56.867Z,21.27
2022-08-16T01:50:42.305Z,21.37
2022-08-16T01:51:16.492Z,21.29
2022-08-16T01:51:56.953Z,21.29
2022-08-16T01:52:56.983Z,21.38
2022-08-16T01:53:57.008Z,21.44
2022-08-16T01:54:57.041Z,21.29
2022-08-16T01:55:57.066Z,21.28
2022-08-16T01:56:57.099Z,21.24
2022-08-16T01:57:57.126Z,21.25
2022-08-16T01:58:57.264Z,21.29
2022-08-16T01:59:57.185Z,21.34
2022-08-16T02:00:57.215Z,21.28
2022-08-16T02:01:59.938Z,21.31
2022-08-16T02:02:57.275Z,21.31
2022-08-16T02:03:58.497Z,21.28
2022-08-16T02:04:57.538Z,21.22
2022-08-16T02:05:57.390Z,21.29
2022-08-16T02:06:57.392Z,21.21
2022-08-16T02:07:57.413Z,21.19
2022-08-16T02:08:57.445Z,21.27
2022-08-16T02:09:59.431Z,21.22
2022-08-16T02:10:57.505Z,21.24
2022-08-16T02:11:57.532Z,21.16
2022-08-16T02:13:00.732Z,21.17
2022-08-16T02:13:57.590Z,21.19
2022-08-16T02:14:57.616Z,21.19
2022-08-16T02:15:57.648Z,21.19
2022-08-16T02:16:57.691Z,21.19
2022-08-16T02:17:57.709Z,21.24
2022-08-16T02:18:57.736Z,21.19
2022-08-16T02:19:58.549Z,21.21
2022-08-16T02:20:57.792Z,21.16
2022-08-16T02:22:08.744Z,21.14
2022-08-16T02:22:57.847Z,21.10
2022-08-16T02:23:57.879Z,21.10
2022-08-16T02:24:57.908Z,21.01
2022-08-16T02:25:59.392Z,21.01
2022-08-16T02:26:57.962Z,21.04
2022-08-16T02:27:57.997Z,21.01
2022-08-16T02:28:58.019Z,21.04
2022-08-16T02:30:05.022Z,21.01
2022-08-16T02:30:58.081Z,21.04
2022-08-16T02:32:04.129Z,21.04
2022-08-16T02:32:58.139Z,21.07
2022-08-16T02:33:58.168Z,21.03
2022-08-16T02:34:58.265Z,21.03
2022-08-16T02:36:00.117Z,20.99
2022-08-16T02:36:58.252Z,21.01
2022-08-16T02:38:01.671Z,20.98
2022-08-16T02:38:58.317Z,21.04
2022-08-16T02:39:58.362Z,21.01
2022-08-16T02:40:59.047Z,20.98
2022-08-16T02:41:58.399Z,20.97
2022-08-16T02:42:58.429Z,20.99
2022-08-16T02:43:58.453Z,20.95
2022-08-16T02:44:58.483Z,20.98
2022-08-16T02:45:58.514Z,20.94
2022-08-16T02:46:58.541Z,20.98
2022-08-16T02:48:01.629Z,20.92
2022-08-16T02:49:00.363Z,20.85
2022-08-16T02:50:54.452Z,20.85
2022-08-16T02:51:11.031Z,20.82
2022-08-16T02:51:58.684Z,20.76
2022-08-16T02:52:58.713Z,20.76
2022-08-16T02:53:58.742Z,20.77
2022-08-16T02:54:58.769Z,20.70
2022-08-16T02:55:58.800Z,20.72
2022-08-16T02:56:58.830Z,20.67
2022-08-16T02:57:58.858Z,20.70
2022-08-16T02:58:58.887Z,20.69
2022-08-16T02:59:58.917Z,20.76
2022-08-16T03:00:58.967Z,20.73
2022-08-16T03:01:59.033Z,20.70
2022-08-16T03:02:59.001Z,20.73
2022-08-16T03:04:39.979Z,20.64
2022-08-16T03:04:59.055Z,20.57
2022-08-16T03:05:59.087Z,20.61
2022-08-16T03:06:59.114Z,20.57
2022-08-16T03:07:59.141Z,20.62
2022-08-16T03:08:59.980Z,20.57
2022-08-16T03:10:00.599Z,20.62
2022-08-16T03:10:59.463Z,20.66
2022-08-16T03:11:59.256Z,20.61
2022-08-16T03:12:59.571Z,20.62
2022-08-16T03:13:59.317Z,20.59
2022-08-16T03:14:59.340Z,20.55
2022-08-16T03:15:59.370Z,20.61
2022-08-16T03:17:00.967Z,20.57
2022-08-16T03:17:59.430Z,20.62
2022-08-16T03:18:59.456Z,20.59
2022-08-16T03:20:02.497Z,20.61
2022-08-16T03:20:59.516Z,20.58
2022-08-16T03:21:59.541Z,20.69
2022-08-16T03:22:59.573Z,20.72
2022-08-16T03:23:59.600Z,20.67
2022-08-16T03:25:00.818Z,20.69
2022-08-16T03:25:59.658Z,20.74
2022-08-16T03:26:59.684Z,20.73
2022-08-16T03:27:59.837Z,20.77
2022-08-16T03:28:59.743Z,20.77
2022-08-16T03:29:59.771Z,20.77
2022-08-16T03:30:59.801Z,20.72
2022-08-16T03:32:01.431Z,20.74
2022-08-16T03:32:59.856Z,20.79
2022-08-16T03:33:59.886Z,20.73
2022-08-16T03:34:59.913Z,20.72
2022-08-16T03:36:29.840Z,20.67
2022-08-16T03:36:59.968Z,20.54
2022-08-16T03:38:02.353Z,20.54
2022-08-16T03:39:00.028Z,20.54
2022-08-16T03:40:02.886Z,20.52
2022-08-16T03:41:00.129Z,20.50
2022-08-16T03:42:00.434Z,20.51
2022-08-16T03:43:00.593Z,20.47
2022-08-16T03:44:00.172Z,20.50
2022-08-16T03:45:03.827Z,20.42
2022-08-16T03:46:00.228Z,20.43
2022-08-16T03:47:00.257Z,20.42
2022-08-16T03:48:00.286Z,20.39
2022-08-16T03:49:00.314Z,20.38
2022-08-16T03:50:00.340Z,20.43
2022-08-16T03:51:00.583Z,20.50
2022-08-16T03:52:00.401Z,20.47
2022-08-16T03:53:04.265Z,20.43
2022-08-16T03:54:01.546Z,20.50
2022-08-16T03:55:00.483Z,20.51
2022-08-16T03:56:00.512Z,20.41
2022-08-16T03:57:00.541Z,20.42
2022-08-16T03:58:00.572Z,20.41
2022-08-16T03:59:00.600Z,20.41
2022-08-16T04:00:00.627Z,20.33
2022-08-16T04:01:00.695Z,20.31
2022-08-16T04:02:00.860Z,20.28
2022-08-16T04:03:00.709Z,20.24
2022-08-16T04:04:00.776Z,20.28
2022-08-16T04:05:00.770Z,20.23
2022-08-16T04:06:02.172Z,20.17
2022-08-16T04:07:00.828Z,20.28
2022-08-16T04:08:00.851Z,20.21
2022-08-16T04:09:00.906Z,20.28
2022-08-16T04:10:00.908Z,20.13
2022-08-16T04:11:00.939Z,20.13
2022-08-16T04:12:00.969Z,20.10
2022-08-16T04:13:04.509Z,20.11
2022-08-16T04:14:33.044Z,20.11
2022-08-16T04:15:01.054Z,20.05
2022-08-16T04:16:01.085Z,20.08
2022-08-16T04:17:08.295Z,20.01
2022-08-16T04:19:05.607Z,19.92
2022-08-16T04:20:05.153Z,19.92
2022-08-16T04:22:09.184Z,19.76
2022-08-16T04:23:09.196Z,19.73
2022-08-16T04:25:02.683Z,19.74
2022-08-16T04:26:02.375Z,19.76
2022-08-16T04:27:56.005Z,19.69
2022-08-16T04:29:16.320Z,19.71
2022-08-16T04:30:59.836Z,19.73
2022-08-16T04:31:59.382Z,19.68
2022-08-16T04:34:03.421Z,19.71
2022-08-16T04:35:08.439Z,19.68
2022-08-16T04:37:08.440Z,19.83
2022-08-16T04:38:11.054Z,19.81
2022-08-16T04:40:11.570Z,19.88
2022-08-16T04:41:11.679Z,19.86
2022-08-16T04:43:05.028Z,19.94
2022-08-16T04:44:32.872Z,20.05
2022-08-16T04:46:19.855Z,20.13
2022-08-16T04:47:21.707Z,20.11
2022-08-16T04:49:13.275Z,20.14
2022-08-16T04:50:14.472Z,20.28
2022-08-16T04:52:34.756Z,20.16
2022-08-16T04:53:16.900Z,20.38
2022-08-16T04:55:21.886Z,20.33
2022-08-16T04:56:20.928Z,20.36
2022-08-16T04:58:45.561Z,20.36
2022-08-16T04:59:28.033Z,20.51
2022-08-16T05:01:56.093Z,20.43
2022-08-16T05:02:41.761Z,20.42
2022-08-16T05:04:33.517Z,20.58
2022-08-16T05:05:36.857Z,20.54
2022-08-16T05:07:26.019Z,20.73
2022-08-16T05:08:28.822Z,20.74
2022-08-16T05:10:30.539Z,20.89
2022-08-16T05:11:32.186Z,20.95
2022-08-16T05:13:40.346Z,21.13
2022-08-16T05:14:45.988Z,21.16
2022-08-16T05:16:38.625Z,21.25
2022-08-16T05:17:38.173Z,21.38
2022-08-16T05:19:46.615Z,21.34
2022-08-16T05:20:54.189Z,21.37
2022-08-16T05:21:42.752Z,21.27
2022-08-16T05:22:44.479Z,21.29
2022-08-16T05:23:47.840Z,21.29
2022-08-16T05:24:44.010Z,21.43
2022-08-16T05:25:48.826Z,21.44
2022-08-16T05:26:43.130Z,21.46
2022-08-16T05:27:43.316Z,21.53
2022-08-16T05:28:42.952Z,21.40
2022-08-16T05:29:57.652Z,21.58
2022-08-16T05:30:43.164Z,21.69
2022-08-16T05:31:44.191Z,21.75
2022-08-16T05:32:45.775Z,21.74
2022-08-16T05:33:43.097Z,21.77
2022-08-16T05:34:43.135Z,21.77
2022-08-16T05:35:43.162Z,21.88
2022-08-16T05:36:44.085Z,21.98
2022-08-16T05:37:43.221Z,22.02
2022-08-16T05:38:43.254Z,22.07
2022-08-16T05:39:43.342Z,22.22
2022-08-16T05:40:43.310Z,22.25
2022-08-16T05:41:45.314Z,22.31
2022-08-16T05:42:47.618Z,22.31
2022-08-16T05:43:46.779Z,22.45
2022-08-16T05:44:43.428Z,22.52
2022-08-16T05:45:43.460Z,22.46
2022-08-16T05:46:43.962Z,22.49
2022-08-16T05:47:43.601Z,22.57
2022-08-16T05:48:43.547Z,22.65
2022-08-16T05:49:43.578Z,22.67
2022-08-16T05:50:43.609Z,22.79
2022-08-16T05:51:45.732Z,22.76
2022-08-16T05:52:44.779Z,22.88
2022-08-16T05:53:43.699Z,22.80
2022-08-16T05:54:47.643Z,22.80
2022-08-16T05:55:43.767Z,22.80
2022-08-16T05:56:43.789Z,22.85
2022-08-16T05:57:43.819Z,22.86
2022-08-16T05:58:43.851Z,22.85
2022-08-16T05:59:43.883Z,22.91
2022-08-16T06:00:43.922Z,23.02
2022-08-16T06:01:43.970Z,22.94
2022-08-16T06:02:44.005Z,23.00
2022-08-16T06:03:44.003Z,23.02
2022-08-16T06:04:44.885Z,23.04
2022-08-16T06:05:44.059Z,23.05
2022-08-16T06:06:56.840Z,23.01
2022-08-16T06:07:44.150Z,23.07
2022-08-16T06:08:44.894Z,23.22
2022-08-16T06:09:44.549Z,23.39
2022-08-16T06:11:02.614Z,23.60
2022-08-16T06:11:44.247Z,23.72
2022-08-16T06:12:44.314Z,23.95
2022-08-16T06:13:44.304Z,24.32
2022-08-16T06:14:44.334Z,24.61
2022-08-16T06:15:44.374Z,25.02
2022-08-16T06:16:44.400Z,25.35
2022-08-16T06:17:44.738Z,25.73
2022-08-16T06:18:44.461Z,25.99
2022-08-16T06:19:44.754Z,26.28
2022-08-16T06:20:55.368Z,26.60
2022-08-16T06:21:44.559Z,26.89
2022-08-16T06:22:44.707Z,27.04
2022-08-16T06:23:44.620Z,27.37
2022-08-16T06:24:52.898Z,27.37
2022-08-16T06:25:44.686Z,27.66
2022-08-16T06:26:45.005Z,27.81
2022-08-16T06:27:57.484Z,28.00
2022-08-16T06:28:44.782Z,28.04
2022-08-16T06:29:50.100Z,28.17
2022-08-16T06:30:45.136Z,28.41
2022-08-16T06:31:48.783Z,28.59
2022-08-16T06:32:44.917Z,28.62
2022-08-16T06:33:45.161Z,28.86
2022-08-16T06:34:55.496Z,29.04
2022-08-16T06:35:45.018Z,29.27
2022-08-16T06:36:45.096Z,29.52
2022-08-16T06:37:51.133Z,29.74
2022-08-16T06:38:55.365Z,29.98
2022-08-16T06:39:46.725Z,30.01
2022-08-16T06:40:49.112Z,30.11
2022-08-16T06:41:45.221Z,30.15
2022-08-16T06:42:55.305Z,30.11
2022-08-16T06:43:45.296Z,30.31
2022-08-16T06:44:45.339Z,30.34
2022-08-16T06:45:45.367Z,30.42
2022-08-16T06:46:50.481Z,30.35
2022-08-16T06:47:52.996Z,30.38
2022-08-16T06:48:51.067Z,30.32
2022-08-16T06:49:53.890Z,30.31
2022-08-16T06:50:45.546Z,30.43
2022-08-16T06:51:46.130Z,30.39
2022-08-16T06:53:00.639Z,30.43
2022-08-16T06:53:45.650Z,30.35
2022-08-16T06:54:46.399Z,30.22
2022-08-16T06:55:45.727Z,30.13
2022-08-16T06:56:45.807Z,29.92
2022-08-16T06:57:45.793Z,29.76
2022-08-16T06:58:45.829Z,29.55
2022-08-16T06:59:52.892Z,29.36
2022-08-16T07:00:45.934Z,29.14
2022-08-16T07:01:53.696Z,29.04
2022-08-16T07:02:46.022Z,29.00
2022-08-16T07:03:55.792Z,28.77
2022-08-16T07:04:46.045Z,28.83
2022-08-16T07:05:46.082Z,28.88
2022-08-16T07:06:46.110Z,28.96
2022-08-16T07:07:46.148Z,28.96
2022-08-16T07:08:46.184Z,28.96
2022-08-16T07:09:46.218Z,28.98
2022-08-16T07:10:46.258Z,28.81
2022-08-16T07:11:47.420Z,28.67
2022-08-16T07:12:47.528Z,28.61
2022-08-16T07:14:00.252Z,28.48
2022-08-16T07:14:46.396Z,28.48
2022-08-16T07:15:50.188Z,28.33
2022-08-16T07:16:46.463Z,28.22
2022-08-16T07:17:46.498Z,28.12
2022-08-16T07:19:01.706Z,28.06
2022-08-16T07:20:02.824Z,28.02
2022-08-16T07:20:47.827Z,27.79
2022-08-16T07:21:59.399Z,27.67
2022-08-16T07:22:58.669Z,27.70
2022-08-16T07:23:46.705Z,27.63
2022-08-16T07:24:46.733Z,27.54
2022-08-16T07:25:46.771Z,27.50
2022-08-16T07:26:48.467Z,27.50
2022-08-16T07:27:47.009Z,27.51
2022-08-16T07:28:46.877Z,27.51
2022-08-16T07:29:46.907Z,27.54
2022-08-16T07:30:47.228Z,27.54
2022-08-16T07:31:46.971Z,27.54
2022-08-16T07:32:51.683Z,27.50
2022-08-16T07:33:53.640Z,27.47
2022-08-16T07:34:48.203Z,27.50
2022-08-16T07:35:49.483Z,27.54
2022-08-16T07:36:57.970Z,27.50
2022-08-16T07:37:47.172Z,27.34
2022-08-16T07:38:47.206Z,27.41
2022-08-16T07:39:47.262Z,27.36
2022-08-16T07:41:00.053Z,27.37
2022-08-16T07:41:47.303Z,27.44
2022-08-16T07:42:47.544Z,27.36
2022-08-16T07:43:47.545Z,27.25
2022-08-16T07:44:50.382Z,27.06
2022-08-16T07:45:52.870Z,26.88
2022-08-16T07:46:47.493Z,26.81
2022-08-16T07:47:47.505Z,26.85
2022-08-16T07:48:47.787Z,26.92
2022-08-16T07:49:53.246Z,26.99
2022-08-16T07:50:55.545Z,27.07
2022-08-16T07:51:47.658Z,27.10
2022-08-16T07:52:47.680Z,27.14
2022-08-16T07:53:47.700Z,27.25
2022-08-16T07:54:48.984Z,27.27
2022-08-16T07:55:48.349Z,27.40
2022-08-16T07:56:47.792Z,27.49
2022-08-16T07:57:59.867Z,27.44
2022-08-16T07:58:47.863Z,27.50
2022-08-16T07:59:47.895Z,27.54
2022-08-16T08:00:47.984Z,27.43
2022-08-16T08:01:47.962Z,27.50
2022-08-16T08:02:48.121Z,27.51
2022-08-16T08:03:49.239Z,27.57
2022-08-16T08:04:48.138Z,27.60
2022-08-16T08:05:48.094Z,27.67
2022-08-16T08:06:51.203Z,27.63
2022-08-16T08:07:48.158Z,27.75
2022-08-16T08:08:51.668Z,27.84
2022-08-16T08:09:48.222Z,27.79
2022-08-16T08:10:48.257Z,27.81
2022-08-16T08:12:00.986Z,27.63
2022-08-16T08:12:48.552Z,27.51
2022-08-16T08:13:48.356Z,27.47
2022-08-16T08:14:48.389Z,27.55
2022-08-16T08:15:52.691Z,27.47
2022-08-16T08:16:48.454Z,27.43
2022-08-16T08:17:48.488Z,27.32
2022-08-16T08:18:49.960Z,27.46
2022-08-16T08:19:53.303Z,27.51
2022-08-16T08:20:59.608Z,27.54
2022-08-16T08:22:00.151Z,27.40
2022-08-16T08:22:48.827Z,27.43
2022-08-16T08:23:48.689Z,27.37
2022-08-16T08:24:48.726Z,27.31
2022-08-16T08:25:53.687Z,27.41
2022-08-16T08:26:50.020Z,27.47
2022-08-16T08:27:48.814Z,27.55
2022-08-16T08:28:48.847Z,27.66
2022-08-16T08:30:49.447Z,27.79
2022-08-16T08:31:01.102Z,27.84
2022-08-16T08:31:48.947Z,27.84
2022-08-16T08:32:59.673Z,28.00
2022-08-16T08:33:51.580Z,28.03
2022-08-16T08:34:49.046Z,28.07
2022-08-16T08:35:49.081Z,28.14
2022-08-16T08:36:49.112Z,28.22
2022-08-16T08:37:55.125Z,28.36
2022-08-16T08:38:49.175Z,28.36
2022-08-16T08:39:54.626Z,28.49
2022-08-16T08:40:49.242Z,28.43
2022-08-16T08:41:49.308Z,28.49
2022-08-16T08:42:49.724Z,28.49
2022-08-16T08:43:50.498Z,28.51
2022-08-16T08:44:49.376Z,28.51
2022-08-16T08:45:52.667Z,28.55
2022-08-16T08:47:00.525Z,28.48
2022-08-16T08:47:58.435Z,28.56
2022-08-16T08:48:59.090Z,28.59
2022-08-16T08:49:55.507Z,28.55
2022-08-16T08:50:50.182Z,28.49
2022-08-16T08:51:49.607Z,28.46
2022-08-16T08:52:49.769Z,28.62
2022-08-16T08:53:57.652Z,28.61
2022-08-16T08:54:50.547Z,28.58
2022-08-16T08:55:49.740Z,28.62
2022-08-16T08:56:49.776Z,28.58
2022-08-16T08:57:49.808Z,28.62
2022-08-16T08:58:54.964Z,28.66
2022-08-16T08:59:49.877Z,28.74
2022-08-16T09:00:51.061Z,28.83
2022-08-16T09:01:57.103Z,28.86
2022-08-16T09:02:51.988Z,28.93
2022-08-16T09:03:50.081Z,28.96
2022-08-16T09:04:50.071Z,29.04
2022-08-16T09:05:51.616Z,29.09
2022-08-16T09:06:50.109Z,29.15
2022-08-16T09:08:00.398Z,29.08
2022-08-16T09:08:50.171Z,29.08
2022-08-16T09:09:50.205Z,28.93
2022-08-16T09:11:01.968Z,29.04
2022-08-16T09:12:04.400Z,29.00
2022-08-16T09:12:50.661Z,29.02
2022-08-16T09:13:50.336Z,28.98
2022-08-16T09:14:51.229Z,28.92
2022-08-16T09:15:50.409Z,28.92
2022-08-16T09:17:03.568Z,28.93
2022-08-16T09:17:52.377Z,29.05
2022-08-16T09:18:53.500Z,29.04
2022-08-16T09:19:55.152Z,29.15
2022-08-16T09:20:58.565Z,29.09
2022-08-16T09:21:56.302Z,29.09
2022-08-16T09:22:52.448Z,29.11
2022-08-16T09:23:50.679Z,29.09
2022-08-16T09:24:52.446Z,29.02
2022-08-16T09:25:50.738Z,29.11
2022-08-16T09:26:52.447Z,29.00
2022-08-16T09:27:57.951Z,29.02
2022-08-16T09:29:15.254Z,29.08
2022-08-16T09:29:59.943Z,29.21
2022-08-16T09:30:50.909Z,29.16
2022-08-16T09:31:53.598Z,29.30
2022-08-16T09:32:51.117Z,29.19
2022-08-16T09:33:51.959Z,29.23
2022-08-16T09:34:51.047Z,29.26
2022-08-16T09:35:52.998Z,29.26
2022-08-16T09:36:54.597Z,29.27
2022-08-16T09:38:01.133Z,29.31
2022-08-16T09:38:51.180Z,29.28
2022-08-16T09:39:51.296Z,29.39
2022-08-16T09:40:51.268Z,29.61
2022-08-16T09:41:53.956Z,29.67
2022-08-16T09:42:56.428Z,29.67
2022-08-16T09:43:59.178Z,29.70
2022-08-16T09:45:12.740Z,29.67
2022-08-16T09:45:51.412Z,29.71
2022-08-16T09:46:53.814Z,29.74
2022-08-16T09:47:56.704Z,29.79
2022-08-16T09:48:51.767Z,29.82
2022-08-16T09:49:51.550Z,29.85
2022-08-16T09:50:51.585Z,29.92
2022-08-16T09:51:51.617Z,29.92
2022-08-16T09:52:51.744Z,29.90
2022-08-16T09:53:53.916Z,29.95
2022-08-16T09:54:51.719Z,30.02
2022-08-16T09:55:51.750Z,30.01
2022-08-16T09:56:53.336Z,30.11
2022-08-16T09:57:52.852Z,30.07
2022-08-16T09:59:05.007Z,30.01
2022-08-16T09:59:56.394Z,29.97
2022-08-16T10:00:51.920Z,29.94
2022-08-16T10:01:51.954Z,29.92
2022-08-16T10:02:51.989Z,29.98
2022-08-16T10:04:01.988Z,29.92
2022-08-16T10:04:54.885Z,29.78
2022-08-16T10:05:52.092Z,29.85
2022-08-16T10:06:52.181Z,29.79
2022-08-16T10:07:52.407Z,29.71
2022-08-16T10:09:04.186Z,29.79
2022-08-16T10:09:54.716Z,29.74
2022-08-16T10:10:52.269Z,29.80
2022-08-16T10:11:52.294Z,29.82
2022-08-16T10:12:55.373Z,29.71
2022-08-16T10:13:52.362Z,29.70
2022-08-16T10:14:52.394Z,29.61
2022-08-16T10:15:55.726Z,29.70
2022-08-16T10:16:59.534Z,29.71
2022-08-16T10:18:01.401Z,29.79
2022-08-16T10:19:00.901Z,29.82
2022-08-16T10:19:59.727Z,29.90
2022-08-16T10:21:57.063Z,29.74
2022-08-16T10:23:03.666Z,29.63
2022-08-16T10:25:00.701Z,29.53
2022-08-16T10:27:16.170Z,29.55
2022-08-16T10:28:05.821Z,29.46
2022-08-16T10:28:53.672Z,29.23
2022-08-16T10:30:58.960Z,29.24
2022-08-16T10:31:57.753Z,29.34
2022-08-16T10:34:02.246Z,29.53
2022-08-16T10:35:02.051Z,29.61
2022-08-16T10:37:05.842Z,29.82
2022-08-16T10:38:06.817Z,29.89
2022-08-16T10:40:28.616Z,30.13
2022-08-16T10:41:10.355Z,30.13
2022-08-16T10:43:16.831Z,30.47
2022-08-16T10:44:13.993Z,30.51
2022-08-16T10:46:39.800Z,30.64
2022-08-16T10:47:18.062Z,30.61
2022-08-16T10:49:22.102Z,30.54
2022-08-16T10:50:22.122Z,30.42
2022-08-16T10:52:26.624Z,30.45
2022-08-16T10:53:26.186Z,30.27
2022-08-16T10:55:40.620Z,30.27
2022-08-16T10:56:51.606Z,30.35
2022-08-16T10:58:34.950Z,30.15
2022-08-16T10:59:44.938Z,30.13
2022-08-16T11:01:43.147Z,30.20
2022-08-16T11:02:59.931Z,30.27
2022-08-16T11:07:51.374Z,30.15
2022-08-16T11:08:39.636Z,30.29
2022-08-16T11:12:14.094Z,30.39
2022-08-16T11:14:06.071Z,30.45
2022-08-16T11:15:47.931Z,30.75
2022-08-16T11:17:44.983Z,31.04
2022-08-16T11:18:48.321Z,31.16
2022-08-16T11:20:48.718Z,31.31
2022-08-16T11:22:48.383Z,31.21
2022-08-16T11:23:57.538Z,31.25
2022-08-16T11:24:44.599Z,31.29
2022-08-16T11:26:44.126Z,31.39
2022-08-16T11:27:44.333Z,31.48
2022-08-16T11:29:44.086Z,31.56
2022-08-16T11:30:44.123Z,31.70
2022-08-16T11:31:45.804Z,31.61
2022-08-16T11:32:44.237Z,31.69
2022-08-16T11:33:52.567Z,31.76
2022-08-16T11:35:06.090Z,31.81
2022-08-16T11:35:44.650Z,31.88
2022-08-16T11:36:53.884Z,31.92
2022-08-16T11:38:52.010Z,32.22
2022-08-16T11:39:44.465Z,32.29
2022-08-16T11:40:44.754Z,32.18
2022-08-16T11:41:44.501Z,32.07
2022-08-16T11:42:44.539Z,32.08
2022-08-16T11:43:44.571Z,32.03
2022-08-16T11:44:52.794Z,32.04
2022-08-16T11:45:53.605Z,32.11
2022-08-16T11:46:46.927Z,32.19
2022-08-16T11:47:44.757Z,32.22
2022-08-16T11:48:44.746Z,32.30
2022-08-16T11:49:44.784Z,32.23
2022-08-16T11:50:44.817Z,32.29
2022-08-16T11:51:44.883Z,32.32
2022-08-16T11:52:46.692Z,32.19
2022-08-16T11:53:44.932Z,31.99
2022-08-16T11:54:45.016Z,31.93
2022-08-16T11:55:45.001Z,32.07
2022-08-16T11:56:57.406Z,32.19
2022-08-16T11:57:45.067Z,32.33
2022-08-16T11:58:45.100Z,32.41
2022-08-16T11:59:45.137Z,32.60
2022-08-16T12:00:51.860Z,32.69
2022-08-16T12:01:58.992Z,32.75
2022-08-16T12:02:45.994Z,32.70
2022-08-16T12:03:45.313Z,32.69
2022-08-16T12:04:45.314Z,32.60
2022-08-16T12:05:45.354Z,32.50
2022-08-16T12:06:45.387Z,32.37
2022-08-16T12:07:45.425Z,32.30
2022-08-16T12:08:45.458Z,32.25
2022-08-16T12:09:45.494Z,32.15
2022-08-16T12:10:45.532Z,32.18
2022-08-16T12:11:45.567Z,31.91
2022-08-16T12:12:46.724Z,31.80
2022-08-16T12:13:45.639Z,31.69
2022-08-16T12:14:45.792Z,31.57
2022-08-16T12:15:45.710Z,31.51
2022-08-16T12:16:52.608Z,31.29
2022-08-16T12:17:45.794Z,31.28
2022-08-16T12:19:45.852Z,31.29
2022-08-16T12:20:45.888Z,31.32
2022-08-16T12:21:58.451Z,31.39
2022-08-16T12:22:45.958Z,31.56
2022-08-16T12:23:45.994Z,31.72
2022-08-16T12:24:51.040Z,31.89
2022-08-16T12:25:46.065Z,32.06
2022-08-16T12:26:46.097Z,32.00
2022-08-16T12:27:46.133Z,31.93
2022-08-16T12:28:55.094Z,31.91
2022-08-16T12:29:46.209Z,31.88
2022-08-16T12:30:46.239Z,32.00
2022-08-16T12:31:59.153Z,32.07
2022-08-16T12:32:46.312Z,32.13
2022-08-16T12:33:46.349Z,32.32
2022-08-16T12:34:50.887Z,32.45
2022-08-16T12:35:46.419Z,32.51
2022-08-16T12:36:46.462Z,32.50
2022-08-16T12:37:47.211Z,32.45
2022-08-16T12:38:48.176Z,32.65
2022-08-16T12:39:51.291Z,32.72
2022-08-16T12:40:46.597Z,32.81
2022-08-16T12:41:46.632Z,33.03
2022-08-16T12:42:52.999Z,33.09
2022-08-16T12:43:46.706Z,33.28
2022-08-16T12:44:46.757Z,33.35
2022-08-16T12:45:47.294Z,33.49
2022-08-16T12:46:46.813Z,33.63
2022-08-16T12:47:46.850Z,33.63
2022-08-16T12:48:46.894Z,33.78
2022-08-16T12:49:46.921Z,33.76
2022-08-16T12:50:50.176Z,33.81
2022-08-16T12:51:58.280Z,33.81
2022-08-16T12:52:52.967Z,33.84
2022-08-16T12:53:47.074Z,33.87
2022-08-16T12:54:54.932Z,33.94
2022-08-16T12:55:47.141Z,33.94
2022-08-16T12:56:47.191Z,34.05
2022-08-16T12:57:47.212Z,34.05
2022-08-16T12:58:50.501Z,34.03
2022-08-16T12:59:47.285Z,34.05
2022-08-16T13:00:47.354Z,34.00
2022-08-16T13:01:47.357Z,33.88
2022-08-16T13:02:47.640Z,33.87
2022-08-16T13:03:47.455Z,33.79
2022-08-16T13:04:47.485Z,33.71
2022-08-16T13:05:55.306Z,33.73
2022-08-16T13:06:47.666Z,33.60
2022-08-16T13:07:51.858Z,33.42
2022-08-16T13:08:47.611Z,33.31
2022-08-16T13:09:47.654Z,32.99
2022-08-16T13:10:47.689Z,32.89
2022-08-16T13:11:55.188Z,33.09
2022-08-16T13:12:47.757Z,33.04
2022-08-16T13:13:47.794Z,33.15
2022-08-16T13:14:47.827Z,33.07
2022-08-16T13:15:55.462Z,33.16
2022-08-16T13:16:47.905Z,33.23
2022-08-16T13:17:50.191Z,33.26
2022-08-16T13:18:52.337Z,33.16
2022-08-16T13:20:48.049Z,32.88
2022-08-16T13:21:50.010Z,32.89
2022-08-16T13:22:48.123Z,32.85
2022-08-16T13:23:48.157Z,32.97
2022-08-16T13:24:48.193Z,32.88
2022-08-16T13:25:49.706Z,32.88
2022-08-16T13:26:48.263Z,33.04
2022-08-16T13:28:02.147Z,33.11
2022-08-16T13:28:48.336Z,33.23
2022-08-16T13:29:57.388Z,33.23
2022-08-16T13:30:48.406Z,33.37
2022-08-16T13:31:48.446Z,33.41
2022-08-16T13:32:48.480Z,33.51
2022-08-16T13:33:48.514Z,33.65
2022-08-16T13:34:49.844Z,33.71
2022-08-16T13:35:55.505Z,33.76
2022-08-16T13:36:49.821Z,33.75
2022-08-16T13:37:48.883Z,33.63
2022-08-16T13:38:49.208Z,33.39
2022-08-16T13:39:48.813Z,33.15
2022-08-16T13:40:48.766Z,32.92
2022-08-16T13:41:54.076Z,32.82
2022-08-16T13:42:48.836Z,32.67
2022-08-16T13:43:55.116Z,32.55
2022-08-16T13:44:58.130Z,32.45
2022-08-16T13:45:50.531Z,32.43